sensor_id;sensor_type;location;lat;lon;timestamp;P1;durP1;ratioP1;P2;durP2;ratioP2
17987;SDS011;9119;50.932;5.342;2023-04-08T00:00:43;31.60;;;13.37;;
17987;SDS011;9119;50.932;5.342;2023-04-08T00:03:09;41.40;;;13.93;;
17987;SDS011;9119;50.932;5.342;2023-04-08T00:05:35;37.67;;;15.27;;
17987;SDS011;9119;50.932;5.342;2023-04-08T00:08:00;26.07;;;11.07;;
17987;SDS011;9119;50.932;5.342;2023-04-08T00:10:26;78.83;;;33.93;;
17987;SDS011;9119;50.932;5.342;2023-04-08T00:12:52;172.80;;;62.63;;
17987;SDS011;9119;50.932;5.342;2023-04-08T00:15:18;37.33;;;13.13;;
17987;SDS011;9119;50.932;5.342;2023-04-08T00:17:43;40.93;;;15.60;;
17987;SDS011;9119;50.932;5.342;2023-04-08T00:20:09;36.97;;;13.37;;
17987;SDS011;9119;50.932;5.342;2023-04-08T00:22:35;41.37;;;17.93;;
17987;SDS011;9119;50.932;5.342;2023-04-08T00:25:01;37.27;;;14.20;;
17987;SDS011;9119;50.932;5.342;2023-04-08T00:27:30;127.97;;;56.93;;
17987;SDS011;9119;50.932;5.342;2023-04-08T00:29:56;41.67;;;14.70;;
17987;SDS011;9119;50.932;5.342;2023-04-08T00:32:24;36.57;;;14.60;;
17987;SDS011;9119;50.932;5.342;2023-04-08T00:34:51;48.20;;;18.03;;
17987;SDS011;9119;50.932;5.342;2023-04-08T00:37:17;24.20;;;9.97;;
17987;SDS011;9119;50.932;5.342;2023-04-08T00:39:42;45.43;;;15.47;;
17987;SDS011;9119;50.932;5.342;2023-04-08T00:42:08;38.97;;;11.77;;
17987;SDS011;9119;50.932;5.342;2023-04-08T00:44:34;40.03;;;14.20;;
17987;SDS011;9119;50.932;5.342;2023-04-08T00:47:00;32.27;;;12.87;;
17987;SDS011;9119;50.932;5.342;2023-04-08T00:49:26;117.40;;;52.70;;
17987;SDS011;9119;50.932;5.342;2023-04-08T00:51:52;75.87;;;35.13;;
17987;SDS011;9119;50.932;5.342;2023-04-08T00:54:19;37.03;;;13.97;;
17987;SDS011;9119;50.932;5.342;2023-04-08T00:56:45;50.03;;;16.80;;
17987;SDS011;9119;50.932;5.342;2023-04-08T00:59:10;50.73;;;24.13;;
17987;SDS011;9119;50.932;5.342;2023-04-08T01:01:46;41.63;;;13.83;;
17987;SDS011;9119;50.932;5.342;2023-04-08T01:07:16;44.37;;;15.40;;
17987;SDS011;9119;50.932;5.342;2023-04-08T01:09:55;37.73;;;15.37;;
17987;SDS011;9119;50.932;5.342;2023-04-08T01:12:26;66.17;;;27.03;;
17987;SDS011;9119;50.932;5.342;2023-04-08T01:15:15;44.77;;;15.13;;
17987;SDS011;9119;50.932;5.342;2023-04-08T01:17:40;35.67;;;13.20;;
17987;SDS011;9119;50.932;5.342;2023-04-08T01:20:08;39.50;;;14.17;;
17987;SDS011;9119;50.932;5.342;2023-04-08T01:28:03;46.57;;;16.80;;
17987;SDS011;9119;50.932;5.342;2023-04-08T01:30:31;38.30;;;14.77;;
17987;SDS011;9119;50.932;5.342;2023-04-08T01:32:58;37.33;;;15.37;;
17987;SDS011;9119;50.932;5.342;2023-04-08T01:35:27;34.70;;;14.50;;
17987;SDS011;9119;50.932;5.342;2023-04-08T01:37:54;45.83;;;14.10;;
17987;SDS011;9119;50.932;5.342;2023-04-08T01:40:21;38.80;;;13.67;;
17987;SDS011;9119;50.932;5.342;2023-04-08T01:42:47;34.13;;;15.23;;
17987;SDS011;9119;50.932;5.342;2023-04-08T01:45:15;39.00;;;14.37;;
17987;SDS011;9119;50.932;5.342;2023-04-08T01:47:42;38.50;;;14.47;;
17987;SDS011;9119;50.932;5.342;2023-04-08T01:50:12;39.30;;;14.50;;
17987;SDS011;9119;50.932;5.342;2023-04-08T01:52:38;32.73;;;11.83;;
17987;SDS011;9119;50.932;5.342;2023-04-08T01:55:05;34.70;;;13.73;;
17987;SDS011;9119;50.932;5.342;2023-04-08T01:57:33;36.60;;;15.63;;
17987;SDS011;9119;50.932;5.342;2023-04-08T02:00:05;43.37;;;14.40;;
17987;SDS011;9119;50.932;5.342;2023-04-08T02:02:33;46.43;;;15.70;;
17987;SDS011;9119;50.932;5.342;2023-04-08T02:05:01;39.97;;;14.73;;
17987;SDS011;9119;50.932;5.342;2023-04-08T02:07:27;36.17;;;13.43;;
17987;SDS011;9119;50.932;5.342;2023-04-08T02:09:52;46.20;;;15.30;;
17987;SDS011;9119;50.932;5.342;2023-04-08T02:12:19;42.83;;;11.13;;
17987;SDS011;9119;50.932;5.342;2023-04-08T02:14:45;41.27;;;13.00;;
17987;SDS011;9119;50.932;5.342;2023-04-08T02:17:12;35.37;;;10.77;;
17987;SDS011;9119;50.932;5.342;2023-04-08T02:19:47;39.67;;;11.57;;
17987;SDS011;9119;50.932;5.342;2023-04-08T02:25:14;35.30;;;12.13;;
17987;SDS011;9119;50.932;5.342;2023-04-08T02:27:41;46.93;;;16.20;;
17987;SDS011;9119;50.932;5.342;2023-04-08T02:30:10;34.13;;;11.50;;
17987;SDS011;9119;50.932;5.342;2023-04-08T02:32:37;27.27;;;11.07;;
17987;SDS011;9119;50.932;5.342;2023-04-08T02:35:04;30.90;;;10.40;;
17987;SDS011;9119;50.932;5.342;2023-04-08T02:37:30;31.53;;;10.03;;
17987;SDS011;9119;50.932;5.342;2023-04-08T02:39:56;27.90;;;10.20;;
17987;SDS011;9119;50.932;5.342;2023-04-08T02:42:23;35.60;;;10.53;;
17987;SDS011;9119;50.932;5.342;2023-04-08T02:44:50;29.63;;;11.17;;
17987;SDS011;9119;50.932;5.342;2023-04-08T02:47:15;35.07;;;10.93;;
17987;SDS011;9119;50.932;5.342;2023-04-08T02:49:41;33.77;;;9.37;;
17987;SDS011;9119;50.932;5.342;2023-04-08T02:52:08;23.77;;;10.17;;
17987;SDS011;9119;50.932;5.342;2023-04-08T02:54:34;35.57;;;12.13;;
17987;SDS011;9119;50.932;5.342;2023-04-08T02:57:00;34.77;;;10.60;;
17987;SDS011;9119;50.932;5.342;2023-04-08T02:59:26;33.80;;;10.57;;
17987;SDS011;9119;50.932;5.342;2023-04-08T03:01:53;55.13;;;18.13;;
17987;SDS011;9119;50.932;5.342;2023-04-08T03:04:18;38.20;;;14.03;;
17987;SDS011;9119;50.932;5.342;2023-04-08T03:06:44;52.13;;;19.77;;
17987;SDS011;9119;50.932;5.342;2023-04-08T03:09:09;31.30;;;10.73;;
17987;SDS011;9119;50.932;5.342;2023-04-08T03:11:35;33.90;;;12.00;;
17987;SDS011;9119;50.932;5.342;2023-04-08T03:14:01;35.33;;;10.67;;
17987;SDS011;9119;50.932;5.342;2023-04-08T03:16:26;32.97;;;10.87;;
17987;SDS011;9119;50.932;5.342;2023-04-08T03:18:52;30.57;;;10.57;;
17987;SDS011;9119;50.932;5.342;2023-04-08T03:21:18;32.73;;;11.60;;
17987;SDS011;9119;50.932;5.342;2023-04-08T03:23:43;28.40;;;10.87;;
17987;SDS011;9119;50.932;5.342;2023-04-08T03:26:09;36.40;;;12.60;;
17987;SDS011;9119;50.932;5.342;2023-04-08T03:28:35;41.27;;;12.17;;
17987;SDS011;9119;50.932;5.342;2023-04-08T03:31:04;33.67;;;12.53;;
17987;SDS011;9119;50.932;5.342;2023-04-08T03:33:30;52.60;;;13.33;;
17987;SDS011;9119;50.932;5.342;2023-04-08T03:35:56;34.23;;;12.47;;
17987;SDS011;9119;50.932;5.342;2023-04-08T03:38:21;34.00;;;12.17;;
17987;SDS011;9119;50.932;5.342;2023-04-08T03:40:47;40.47;;;12.03;;
17987;SDS011;9119;50.932;5.342;2023-04-08T03:43:13;46.27;;;13.33;;
17987;SDS011;9119;50.932;5.342;2023-04-08T03:45:39;35.80;;;13.57;;
17987;SDS011;9119;50.932;5.342;2023-04-08T03:48:05;43.50;;;13.67;;
17987;SDS011;9119;50.932;5.342;2023-04-08T03:50:31;34.40;;;13.03;;
17987;SDS011;9119;50.932;5.342;2023-04-08T03:52:57;47.07;;;12.97;;
17987;SDS011;9119;50.932;5.342;2023-04-08T03:55:23;35.77;;;12.33;;
17987;SDS011;9119;50.932;5.342;2023-04-08T03:57:48;32.90;;;12.77;;
17987;SDS011;9119;50.932;5.342;2023-04-08T04:00:15;41.73;;;14.30;;
17987;SDS011;9119;50.932;5.342;2023-04-08T04:02:41;34.77;;;14.13;;
17987;SDS011;9119;50.932;5.342;2023-04-08T04:05:07;41.27;;;13.17;;
17987;SDS011;9119;50.932;5.342;2023-04-08T04:07:32;35.63;;;13.97;;
17987;SDS011;9119;50.932;5.342;2023-04-08T04:09:58;32.47;;;12.83;;
17987;SDS011;9119;50.932;5.342;2023-04-08T04:12:24;38.17;;;13.27;;
17987;SDS011;9119;50.932;5.342;2023-04-08T04:14:50;41.57;;;15.17;;
17987;SDS011;9119;50.932;5.342;2023-04-08T04:17:16;44.13;;;15.23;;
17987;SDS011;9119;50.932;5.342;2023-04-08T04:19:42;38.70;;;13.70;;
17987;SDS011;9119;50.932;5.342;2023-04-08T04:22:07;52.07;;;15.87;;
17987;SDS011;9119;50.932;5.342;2023-04-08T04:24:34;42.17;;;14.23;;
17987;SDS011;9119;50.932;5.342;2023-04-08T04:27:00;38.93;;;14.80;;
17987;SDS011;9119;50.932;5.342;2023-04-08T04:29:25;46.90;;;14.83;;
17987;SDS011;9119;50.932;5.342;2023-04-08T04:31:51;40.33;;;15.60;;
17987;SDS011;9119;50.932;5.342;2023-04-08T04:34:17;41.37;;;15.03;;
17987;SDS011;9119;50.932;5.342;2023-04-08T04:36:42;47.30;;;16.77;;
17987;SDS011;9119;50.932;5.342;2023-04-08T04:39:08;37.83;;;15.17;;
17987;SDS011;9119;50.932;5.342;2023-04-08T04:41:33;43.97;;;16.50;;
17987;SDS011;9119;50.932;5.342;2023-04-08T04:44:03;51.30;;;14.83;;
17987;SDS011;9119;50.932;5.342;2023-04-08T04:46:28;43.97;;;16.47;;
17987;SDS011;9119;50.932;5.342;2023-04-08T04:48:54;47.30;;;16.20;;
17987;SDS011;9119;50.932;5.342;2023-04-08T04:51:20;49.33;;;16.07;;
17987;SDS011;9119;50.932;5.342;2023-04-08T04:53:46;44.63;;;16.53;;
17987;SDS011;9119;50.932;5.342;2023-04-08T04:56:13;55.33;;;15.87;;
17987;SDS011;9119;50.932;5.342;2023-04-08T04:58:38;48.73;;;16.47;;
17987;SDS011;9119;50.932;5.342;2023-04-08T05:01:04;42.67;;;15.87;;
17987;SDS011;9119;50.932;5.342;2023-04-08T05:03:30;47.70;;;16.70;;
17987;SDS011;9119;50.932;5.342;2023-04-08T05:05:56;56.47;;;18.50;;
17987;SDS011;9119;50.932;5.342;2023-04-08T05:08:21;58.27;;;18.63;;
17987;SDS011;9119;50.932;5.342;2023-04-08T05:10:47;46.53;;;17.50;;
17987;SDS011;9119;50.932;5.342;2023-04-08T05:13:16;60.47;;;19.87;;
17987;SDS011;9119;50.932;5.342;2023-04-08T05:15:42;52.57;;;19.23;;
17987;SDS011;9119;50.932;5.342;2023-04-08T05:18:09;56.57;;;20.53;;
17987;SDS011;9119;50.932;5.342;2023-04-08T05:20:36;52.73;;;21.47;;
17987;SDS011;9119;50.932;5.342;2023-04-08T05:23:02;64.63;;;23.17;;
17987;SDS011;9119;50.932;5.342;2023-04-08T05:25:28;67.70;;;22.33;;
17987;SDS011;9119;50.932;5.342;2023-04-08T05:27:54;68.60;;;23.27;;
17987;SDS011;9119;50.932;5.342;2023-04-08T05:30:20;65.20;;;23.13;;
17987;SDS011;9119;50.932;5.342;2023-04-08T05:32:46;81.67;;;25.10;;
17987;SDS011;9119;50.932;5.342;2023-04-08T05:35:12;81.37;;;24.17;;
17987;SDS011;9119;50.932;5.342;2023-04-08T05:37:37;69.30;;;23.60;;
17987;SDS011;9119;50.932;5.342;2023-04-08T05:40:03;79.10;;;26.87;;
17987;SDS011;9119;50.932;5.342;2023-04-08T05:42:29;71.23;;;26.47;;
17987;SDS011;9119;50.932;5.342;2023-04-08T05:44:56;76.07;;;25.93;;
17987;SDS011;9119;50.932;5.342;2023-04-08T05:47:25;70.70;;;24.73;;
17987;SDS011;9119;50.932;5.342;2023-04-08T05:49:50;66.77;;;25.17;;
17987;SDS011;9119;50.932;5.342;2023-04-08T05:52:16;76.53;;;26.87;;
17987;SDS011;9119;50.932;5.342;2023-04-08T05:54:42;68.40;;;25.30;;
17987;SDS011;9119;50.932;5.342;2023-04-08T05:57:08;77.33;;;26.17;;
17987;SDS011;9119;50.932;5.342;2023-04-08T05:59:34;75.07;;;25.67;;
17987;SDS011;9119;50.932;5.342;2023-04-08T06:02:00;86.23;;;27.47;;
17987;SDS011;9119;50.932;5.342;2023-04-08T06:04:25;75.27;;;26.10;;
17987;SDS011;9119;50.932;5.342;2023-04-08T06:06:51;87.17;;;25.20;;
17987;SDS011;9119;50.932;5.342;2023-04-08T06:09:17;79.93;;;26.73;;
17987;SDS011;9119;50.932;5.342;2023-04-08T06:11:42;78.17;;;25.87;;
17987;SDS011;9119;50.932;5.342;2023-04-08T06:14:08;86.30;;;26.23;;
17987;SDS011;9119;50.932;5.342;2023-04-08T06:16:34;83.63;;;26.43;;
17987;SDS011;9119;50.932;5.342;2023-04-08T06:18:59;77.53;;;25.23;;
17987;SDS011;9119;50.932;5.342;2023-04-08T06:21:25;76.03;;;25.57;;
17987;SDS011;9119;50.932;5.342;2023-04-08T06:23:51;80.03;;;25.27;;
17987;SDS011;9119;50.932;5.342;2023-04-08T06:26:17;81.87;;;25.00;;
17987;SDS011;9119;50.932;5.342;2023-04-08T06:28:42;76.73;;;26.03;;
17987;SDS011;9119;50.932;5.342;2023-04-08T06:31:08;81.00;;;25.83;;
17987;SDS011;9119;50.932;5.342;2023-04-08T06:33:34;74.20;;;25.13;;
17987;SDS011;9119;50.932;5.342;2023-04-08T06:36:00;68.63;;;24.30;;
17987;SDS011;9119;50.932;5.342;2023-04-08T06:38:30;73.67;;;25.23;;
17987;SDS011;9119;50.932;5.342;2023-04-08T06:41:02;90.73;;;25.77;;
17987;SDS011;9119;50.932;5.342;2023-04-08T06:43:28;82.53;;;25.53;;
17987;SDS011;9119;50.932;5.342;2023-04-08T06:45:54;73.43;;;25.60;;
17987;SDS011;9119;50.932;5.342;2023-04-08T06:48:20;72.90;;;25.27;;
17987;SDS011;9119;50.932;5.342;2023-04-08T06:50:47;91.33;;;26.43;;
17987;SDS011;9119;50.932;5.342;2023-04-08T06:53:13;80.77;;;26.73;;
17987;SDS011;9119;50.932;5.342;2023-04-08T06:55:39;85.57;;;27.10;;
17987;SDS011;9119;50.932;5.342;2023-04-08T06:58:05;83.07;;;25.80;;
17987;SDS011;9119;50.932;5.342;2023-04-08T07:00:30;89.70;;;26.87;;
17987;SDS011;9119;50.932;5.342;2023-04-08T07:02:56;76.23;;;26.50;;
17987;SDS011;9119;50.932;5.342;2023-04-08T07:05:22;75.60;;;26.70;;
17987;SDS011;9119;50.932;5.342;2023-04-08T07:07:47;85.50;;;27.63;;
17987;SDS011;9119;50.932;5.342;2023-04-08T07:10:13;78.93;;;26.53;;
17987;SDS011;9119;50.932;5.342;2023-04-08T07:12:39;89.53;;;29.47;;
17987;SDS011;9119;50.932;5.342;2023-04-08T07:15:05;78.30;;;28.97;;
17987;SDS011;9119;50.932;5.342;2023-04-08T07:17:31;81.07;;;27.47;;
17987;SDS011;9119;50.932;5.342;2023-04-08T07:19:57;81.20;;;28.13;;
17987;SDS011;9119;50.932;5.342;2023-04-08T07:22:23;77.40;;;27.47;;
17987;SDS011;9119;50.932;5.342;2023-04-08T07:24:49;69.67;;;27.60;;
17987;SDS011;9119;50.932;5.342;2023-04-08T07:27:15;73.47;;;29.10;;
17987;SDS011;9119;50.932;5.342;2023-04-08T07:29:41;82.47;;;28.03;;
17987;SDS011;9119;50.932;5.342;2023-04-08T07:32:07;84.87;;;28.73;;
17987;SDS011;9119;50.932;5.342;2023-04-08T07:34:35;83.43;;;28.47;;
17987;SDS011;9119;50.932;5.342;2023-04-08T07:37:02;77.07;;;26.30;;
17987;SDS011;9119;50.932;5.342;2023-04-08T07:39:27;78.43;;;26.43;;
17987;SDS011;9119;50.932;5.342;2023-04-08T07:41:53;81.73;;;28.73;;
17987;SDS011;9119;50.932;5.342;2023-04-08T07:44:19;72.03;;;26.87;;
17987;SDS011;9119;50.932;5.342;2023-04-08T07:46:44;70.50;;;25.60;;
17987;SDS011;9119;50.932;5.342;2023-04-08T07:49:14;77.40;;;27.73;;
17987;SDS011;9119;50.932;5.342;2023-04-08T07:51:40;74.43;;;27.33;;
17987;SDS011;9119;50.932;5.342;2023-04-08T07:54:06;72.40;;;28.37;;
17987;SDS011;9119;50.932;5.342;2023-04-08T07:56:32;69.47;;;27.00;;
17987;SDS011;9119;50.932;5.342;2023-04-08T07:58:59;67.27;;;26.40;;
17987;SDS011;9119;50.932;5.342;2023-04-08T08:01:25;68.57;;;25.93;;
17987;SDS011;9119;50.932;5.342;2023-04-08T08:03:53;68.70;;;24.87;;
17987;SDS011;9119;50.932;5.342;2023-04-08T08:06:19;59.90;;;24.40;;
17987;SDS011;9119;50.932;5.342;2023-04-08T08:08:45;54.70;;;21.73;;
17987;SDS011;9119;50.932;5.342;2023-04-08T08:11:11;53.97;;;23.50;;
17987;SDS011;9119;50.932;5.342;2023-04-08T08:13:37;55.27;;;23.93;;
17987;SDS011;9119;50.932;5.342;2023-04-08T08:16:02;57.37;;;23.67;;
17987;SDS011;9119;50.932;5.342;2023-04-08T08:18:32;54.27;;;22.97;;
17987;SDS011;9119;50.932;5.342;2023-04-08T08:21:00;62.20;;;25.13;;
17987;SDS011;9119;50.932;5.342;2023-04-08T08:23:26;80.17;;;26.50;;
17987;SDS011;9119;50.932;5.342;2023-04-08T08:26:01;75.47;;;27.03;;
17987;SDS011;9119;50.932;5.342;2023-04-08T08:28:31;53.03;;;23.80;;
17987;SDS011;9119;50.932;5.342;2023-04-08T08:30:57;59.17;;;24.17;;
17987;SDS011;9119;50.932;5.342;2023-04-08T08:33:24;62.27;;;23.03;;
17987;SDS011;9119;50.932;5.342;2023-04-08T08:35:50;50.23;;;20.93;;
17987;SDS011;9119;50.932;5.342;2023-04-08T08:38:16;59.07;;;22.97;;
17987;SDS011;9119;50.932;5.342;2023-04-08T08:40:42;49.90;;;21.07;;
17987;SDS011;9119;50.932;5.342;2023-04-08T08:43:09;60.57;;;23.33;;
17987;SDS011;9119;50.932;5.342;2023-04-08T08:45:41;55.53;;;22.47;;
17987;SDS011;9119;50.932;5.342;2023-04-08T08:48:07;51.43;;;23.50;;
17987;SDS011;9119;50.932;5.342;2023-04-08T08:50:36;55.70;;;23.50;;
17987;SDS011;9119;50.932;5.342;2023-04-08T08:53:02;45.03;;;20.13;;
17987;SDS011;9119;50.932;5.342;2023-04-08T08:55:31;41.90;;;19.47;;
17987;SDS011;9119;50.932;5.342;2023-04-08T08:58:02;37.13;;;17.77;;
17987;SDS011;9119;50.932;5.342;2023-04-08T09:00:36;34.50;;;15.23;;
17987;SDS011;9119;50.932;5.342;2023-04-08T09:03:24;39.73;;;16.40;;
17987;SDS011;9119;50.932;5.342;2023-04-08T09:10:50;29.47;;;14.23;;
17987;SDS011;9119;50.932;5.342;2023-04-08T09:13:16;23.07;;;12.57;;
17987;SDS011;9119;50.932;5.342;2023-04-08T09:16:03;22.80;;;12.27;;
17987;SDS011;9119;50.932;5.342;2023-04-08T09:18:29;25.40;;;12.20;;
17987;SDS011;9119;50.932;5.342;2023-04-08T09:20:58;25.80;;;13.83;;
17987;SDS011;9119;50.932;5.342;2023-04-08T09:23:36;23.30;;;12.67;;
17987;SDS011;9119;50.932;5.342;2023-04-08T09:26:07;21.03;;;11.43;;
17987;SDS011;9119;50.932;5.342;2023-04-08T09:28:38;26.23;;;12.87;;
17987;SDS011;9119;50.932;5.342;2023-04-08T09:31:21;20.97;;;11.60;;
17987;SDS011;9119;50.932;5.342;2023-04-08T09:33:49;23.00;;;11.57;;
17987;SDS011;9119;50.932;5.342;2023-04-08T09:36:15;24.93;;;12.70;;
17987;SDS011;9119;50.932;5.342;2023-04-08T09:38:42;23.87;;;12.33;;
17987;SDS011;9119;50.932;5.342;2023-04-08T09:41:12;24.73;;;12.83;;
17987;SDS011;9119;50.932;5.342;2023-04-08T09:44:03;23.87;;;11.97;;
17987;SDS011;9119;50.932;5.342;2023-04-08T09:46:35;25.00;;;11.83;;
17987;SDS011;9119;50.932;5.342;2023-04-08T09:51:48;23.50;;;12.50;;
17987;SDS011;9119;50.932;5.342;2023-04-08T09:54:51;28.73;;;13.27;;
17987;SDS011;9119;50.932;5.342;2023-04-08T10:00:08;33.27;;;15.93;;
17987;SDS011;9119;50.932;5.342;2023-04-08T10:02:40;37.33;;;15.73;;
17987;SDS011;9119;50.932;5.342;2023-04-08T10:05:18;32.20;;;15.53;;
17987;SDS011;9119;50.932;5.342;2023-04-08T10:07:45;37.40;;;15.43;;
17987;SDS011;9119;50.932;5.342;2023-04-08T10:10:11;37.93;;;17.23;;
17987;SDS011;9119;50.932;5.342;2023-04-08T10:12:37;39.13;;;17.67;;
17987;SDS011;9119;50.932;5.342;2023-04-08T10:17:51;34.93;;;15.57;;
17987;SDS011;9119;50.932;5.342;2023-04-08T10:23:02;37.00;;;17.67;;
17987;SDS011;9119;50.932;5.342;2023-04-08T10:28:23;36.10;;;17.53;;
17987;SDS011;9119;50.932;5.342;2023-04-08T10:30:49;43.97;;;18.27;;
17987;SDS011;9119;50.932;5.342;2023-04-08T10:38:33;42.00;;;18.93;;
17987;SDS011;9119;50.932;5.342;2023-04-08T10:40:59;46.10;;;19.10;;
17987;SDS011;9119;50.932;5.342;2023-04-08T10:43:27;42.70;;;16.90;;
17987;SDS011;9119;50.932;5.342;2023-04-08T10:45:57;41.13;;;18.67;;
17987;SDS011;9119;50.932;5.342;2023-04-08T10:48:23;44.43;;;18.33;;
17987;SDS011;9119;50.932;5.342;2023-04-08T10:50:57;40.63;;;18.87;;
17987;SDS011;9119;50.932;5.342;2023-04-08T10:53:27;44.47;;;19.67;;
17987;SDS011;9119;50.932;5.342;2023-04-08T10:56:07;47.97;;;19.80;;
17987;SDS011;9119;50.932;5.342;2023-04-08T10:58:50;37.97;;;18.70;;
17987;SDS011;9119;50.932;5.342;2023-04-08T11:01:19;41.60;;;18.17;;
17987;SDS011;9119;50.932;5.342;2023-04-08T11:03:45;37.90;;;17.63;;
17987;SDS011;9119;50.932;5.342;2023-04-08T11:06:11;36.87;;;17.83;;
17987;SDS011;9119;50.932;5.342;2023-04-08T11:08:37;35.67;;;16.60;;
17987;SDS011;9119;50.932;5.342;2023-04-08T11:11:03;35.53;;;17.53;;
17987;SDS011;9119;50.932;5.342;2023-04-08T11:13:35;30.60;;;16.00;;
17987;SDS011;9119;50.932;5.342;2023-04-08T11:16:06;29.50;;;14.73;;
17987;SDS011;9119;50.932;5.342;2023-04-08T11:18:39;29.00;;;15.50;;
17987;SDS011;9119;50.932;5.342;2023-04-08T11:21:08;33.00;;;14.17;;
17987;SDS011;9119;50.932;5.342;2023-04-08T11:23:34;31.73;;;14.37;;
17987;SDS011;9119;50.932;5.342;2023-04-08T11:26:00;35.20;;;15.10;;
17987;SDS011;9119;50.932;5.342;2023-04-08T11:28:27;27.07;;;14.97;;
17987;SDS011;9119;50.932;5.342;2023-04-08T11:30:53;25.50;;;14.03;;
17987;SDS011;9119;50.932;5.342;2023-04-08T11:33:19;28.13;;;15.07;;
17987;SDS011;9119;50.932;5.342;2023-04-08T11:35:49;25.97;;;14.70;;
17987;SDS011;9119;50.932;5.342;2023-04-08T11:38:15;24.53;;;13.63;;
17987;SDS011;9119;50.932;5.342;2023-04-08T11:40:52;28.67;;;15.00;;
17987;SDS011;9119;50.932;5.342;2023-04-08T11:43:18;27.57;;;15.03;;
17987;SDS011;9119;50.932;5.342;2023-04-08T11:45:44;26.93;;;15.60;;
17987;SDS011;9119;50.932;5.342;2023-04-08T11:48:10;30.60;;;15.40;;
17987;SDS011;9119;50.932;5.342;2023-04-08T11:50:38;29.27;;;14.93;;
17987;SDS011;9119;50.932;5.342;2023-04-08T11:53:15;30.40;;;15.77;;
17987;SDS011;9119;50.932;5.342;2023-04-08T11:55:49;27.70;;;14.77;;
17987;SDS011;9119;50.932;5.342;2023-04-08T11:58:15;30.90;;;15.17;;
17987;SDS011;9119;50.932;5.342;2023-04-08T12:00:41;32.83;;;15.57;;
17987;SDS011;9119;50.932;5.342;2023-04-08T12:03:07;33.20;;;15.53;;
17987;SDS011;9119;50.932;5.342;2023-04-08T12:05:34;31.13;;;16.07;;
17987;SDS011;9119;50.932;5.342;2023-04-08T12:08:00;31.13;;;16.07;;
17987;SDS011;9119;50.932;5.342;2023-04-08T12:10:26;31.43;;;15.40;;
17987;SDS011;9119;50.932;5.342;2023-04-08T12:12:52;28.20;;;15.10;;
17987;SDS011;9119;50.932;5.342;2023-04-08T12:15:17;24.90;;;14.33;;
17987;SDS011;9119;50.932;5.342;2023-04-08T12:17:43;29.07;;;14.87;;
17987;SDS011;9119;50.932;5.342;2023-04-08T12:20:09;29.47;;;14.97;;
17987;SDS011;9119;50.932;5.342;2023-04-08T12:22:36;29.90;;;14.60;;
17987;SDS011;9119;50.932;5.342;2023-04-08T12:25:02;24.10;;;12.63;;
17987;SDS011;9119;50.932;5.342;2023-04-08T12:27:29;22.17;;;12.20;;
17987;SDS011;9119;50.932;5.342;2023-04-08T12:29:57;26.40;;;12.90;;
17987;SDS011;9119;50.932;5.342;2023-04-08T12:32:23;26.50;;;13.70;;
17987;SDS011;9119;50.932;5.342;2023-04-08T12:34:50;25.83;;;14.63;;
17987;SDS011;9119;50.932;5.342;2023-04-08T12:37:15;25.87;;;14.53;;
17987;SDS011;9119;50.932;5.342;2023-04-08T12:39:41;25.30;;;14.83;;
17987;SDS011;9119;50.932;5.342;2023-04-08T12:42:07;37.10;;;15.10;;
17987;SDS011;9119;50.932;5.342;2023-04-08T12:44:33;32.20;;;15.10;;
17987;SDS011;9119;50.932;5.342;2023-04-08T12:46:58;27.53;;;15.27;;
17987;SDS011;9119;50.932;5.342;2023-04-08T12:49:24;31.17;;;15.30;;
17987;SDS011;9119;50.932;5.342;2023-04-08T12:51:51;29.90;;;14.73;;
17987;SDS011;9119;50.932;5.342;2023-04-08T12:54:17;29.40;;;15.40;;
17987;SDS011;9119;50.932;5.342;2023-04-08T12:56:43;28.97;;;14.63;;
17987;SDS011;9119;50.932;5.342;2023-04-08T12:59:10;26.10;;;14.07;;
17987;SDS011;9119;50.932;5.342;2023-04-08T13:01:36;30.50;;;15.10;;
17987;SDS011;9119;50.932;5.342;2023-04-08T13:04:02;27.03;;;14.60;;
17987;SDS011;9119;50.932;5.342;2023-04-08T13:06:28;30.73;;;15.37;;
17987;SDS011;9119;50.932;5.342;2023-04-08T13:08:53;25.30;;;14.73;;
17987;SDS011;9119;50.932;5.342;2023-04-08T13:11:19;30.63;;;14.07;;
17987;SDS011;9119;50.932;5.342;2023-04-08T13:13:45;27.93;;;15.27;;
17987;SDS011;9119;50.932;5.342;2023-04-08T13:16:14;30.13;;;15.33;;
17987;SDS011;9119;50.932;5.342;2023-04-08T13:18:40;28.90;;;14.97;;
17987;SDS011;9119;50.932;5.342;2023-04-08T13:21:07;25.43;;;15.07;;
17987;SDS011;9119;50.932;5.342;2023-04-08T13:23:33;27.83;;;13.73;;
17987;SDS011;9119;50.932;5.342;2023-04-08T13:25:59;26.60;;;13.53;;
17987;SDS011;9119;50.932;5.342;2023-04-08T13:28:25;28.03;;;13.03;;
17987;SDS011;9119;50.932;5.342;2023-04-08T13:30:51;24.40;;;13.33;;
17987;SDS011;9119;50.932;5.342;2023-04-08T13:33:17;21.93;;;12.40;;
17987;SDS011;9119;50.932;5.342;2023-04-08T13:35:43;24.10;;;13.37;;
17987;SDS011;9119;50.932;5.342;2023-04-08T13:38:09;24.83;;;12.83;;
17987;SDS011;9119;50.932;5.342;2023-04-08T13:40:35;26.50;;;13.23;;
17987;SDS011;9119;50.932;5.342;2023-04-08T13:43:01;22.47;;;12.57;;
17987;SDS011;9119;50.932;5.342;2023-04-08T13:45:27;24.63;;;13.67;;
17987;SDS011;9119;50.932;5.342;2023-04-08T13:47:53;29.77;;;13.37;;
17987;SDS011;9119;50.932;5.342;2023-04-08T13:50:18;22.90;;;13.17;;
17987;SDS011;9119;50.932;5.342;2023-04-08T13:52:44;22.63;;;13.00;;
17987;SDS011;9119;50.932;5.342;2023-04-08T13:55:10;24.67;;;14.07;;
17987;SDS011;9119;50.932;5.342;2023-04-08T13:57:36;23.87;;;14.17;;
17987;SDS011;9119;50.932;5.342;2023-04-08T14:00:01;25.43;;;14.33;;
17987;SDS011;9119;50.932;5.342;2023-04-08T14:02:28;23.23;;;13.30;;
17987;SDS011;9119;50.932;5.342;2023-04-08T14:04:53;29.30;;;14.57;;
17987;SDS011;9119;50.932;5.342;2023-04-08T14:07:19;21.73;;;13.53;;
17987;SDS011;9119;50.932;5.342;2023-04-08T14:09:45;21.37;;;13.13;;
17987;SDS011;9119;50.932;5.342;2023-04-08T14:12:10;20.53;;;12.30;;
17987;SDS011;9119;50.932;5.342;2023-04-08T14:14:36;21.43;;;12.30;;
17987;SDS011;9119;50.932;5.342;2023-04-08T14:17:02;21.17;;;11.00;;
17987;SDS011;9119;50.932;5.342;2023-04-08T14:19:28;21.30;;;12.17;;
17987;SDS011;9119;50.932;5.342;2023-04-08T14:21:53;24.47;;;13.43;;
17987;SDS011;9119;50.932;5.342;2023-04-08T14:24:19;23.63;;;13.30;;
17987;SDS011;9119;50.932;5.342;2023-04-08T14:26:45;22.43;;;12.77;;
17987;SDS011;9119;50.932;5.342;2023-04-08T14:29:11;23.77;;;12.53;;
17987;SDS011;9119;50.932;5.342;2023-04-08T14:31:36;21.50;;;12.77;;
17987;SDS011;9119;50.932;5.342;2023-04-08T14:34:02;26.10;;;13.30;;
17987;SDS011;9119;50.932;5.342;2023-04-08T14:36:28;20.70;;;12.63;;
17987;SDS011;9119;50.932;5.342;2023-04-08T14:38:55;23.13;;;13.27;;
17987;SDS011;9119;50.932;5.342;2023-04-08T14:41:21;25.27;;;15.03;;
17987;SDS011;9119;50.932;5.342;2023-04-08T14:43:47;25.63;;;14.73;;
17987;SDS011;9119;50.932;5.342;2023-04-08T14:46:13;25.50;;;15.60;;
17987;SDS011;9119;50.932;5.342;2023-04-08T14:48:39;25.90;;;14.80;;
17987;SDS011;9119;50.932;5.342;2023-04-08T14:51:05;26.50;;;14.73;;
17987;SDS011;9119;50.932;5.342;2023-04-08T14:53:31;25.73;;;15.63;;
17987;SDS011;9119;50.932;5.342;2023-04-08T14:55:57;30.23;;;16.07;;
17987;SDS011;9119;50.932;5.342;2023-04-08T14:58:23;27.60;;;16.47;;
17987;SDS011;9119;50.932;5.342;2023-04-08T15:00:49;23.37;;;14.17;;
17987;SDS011;9119;50.932;5.342;2023-04-08T15:03:16;25.17;;;14.33;;
17987;SDS011;9119;50.932;5.342;2023-04-08T15:05:43;22.47;;;13.13;;
17987;SDS011;9119;50.932;5.342;2023-04-08T15:08:09;24.37;;;13.57;;